logo
Search for airport 
image banner adimage banner adimage banner ad
image banner ad

EDRY - Speyer

Located in Speyer, Germany

ICAO - EDRY, IATA - ZQC

Data provided by Airmate  

General information

Coordinates: N49°18'8" E8°27'6"
Elevation is 312 feet MSL.
Magnetic variation is 3.0000° East
View others Airports in Rhineland-Palatinate

Operational data

Special qualification required
Current time UTC:
Current local time:
Weather at : EDFM - Mannheim City ( 19 km )
METAR: EDFM 161850Z 25008KT 210V280 CAVOK 24/12 Q1016
TAF: TAF EDFM 161700Z 1618/1621 25010KT CAVOK BECMG 1619/1621 23004KT
View NOTAMs / SUP AIP / TFR affecting this airport [VIEW]
Communications frequencies: [VIEW]

Runways:

RWY identifierQFULength (ft)Width (ft)SurfaceLDA (ft)
16165°550298ASPH4593
34345°550298ASPH4593

Airport contact information

Address: Speyer Germany

Other aviation service providers

Aviation club (not for profit)

Flugsportverein Speyer E.V.

Flugsportverein Speyer E.V.
Rated:
View ratings:
[VIEW]

Motorfluggemeinschaft Speyer E.V.

Motorfluggemeinschaft Speyer E.V.

Satellite view of EDRY